createdAt,value
2018-12-02T00:00:47.170Z,46.70
2018-12-02T00:03:15.896Z,46.80
2018-12-02T00:05:44.634Z,47.30
2018-12-02T00:08:13.412Z,46.80
2018-12-02T00:10:42.158Z,46.80
2018-12-02T00:15:40.350Z,46.70
2018-12-02T00:18:11.261Z,46.60
2018-12-02T00:20:40.184Z,46.40
2018-12-02T00:23:09.662Z,47.00
2018-12-02T00:25:38.377Z,47.00
2018-12-02T00:28:08.260Z,46.00
2018-12-02T00:30:37.028Z,46.50
2018-12-02T00:33:06.575Z,46.00
2018-12-02T00:35:35.376Z,45.80
2018-12-02T00:38:05.667Z,45.60
2018-12-02T00:40:35.021Z,46.40
2018-12-02T00:43:03.835Z,45.70
2018-12-02T00:45:33.652Z,45.60
2018-12-02T00:48:04.527Z,46.30
2018-12-02T00:50:33.359Z,46.10
2018-12-02T00:53:05.081Z,46.20
2018-12-02T00:55:36.301Z,46.30
2018-12-02T00:58:05.182Z,46.90
2018-12-02T01:00:35.970Z,45.90
2018-12-02T01:03:05.618Z,45.90
2018-12-02T01:05:34.377Z,46.50
2018-12-02T01:08:03.117Z,45.80
2018-12-02T01:10:31.925Z,46.40
2018-12-02T01:13:00.744Z,46.60
2018-12-02T01:15:31.135Z,46.90
2018-12-02T01:17:59.981Z,47.90
2018-12-02T01:20:28.673Z,48.00
2018-12-02T01:22:57.400Z,48.10
2018-12-02T01:25:26.138Z,47.40
2018-12-02T01:27:54.854Z,47.90
2018-12-02T01:30:24.507Z,47.00
2018-12-02T01:32:56.398Z,47.50
2018-12-02T01:35:25.062Z,47.80
2018-12-02T01:37:53.783Z,48.30
2018-12-02T01:40:23.646Z,48.00
2018-12-02T01:42:54.037Z,48.60
2018-12-02T01:45:23.772Z,48.60
2018-12-02T01:47:53.252Z,48.60
2018-12-02T01:50:25.489Z,48.70
2018-12-02T01:52:56.188Z,48.50
2018-12-02T01:55:24.890Z,48.30
2018-12-02T01:57:53.575Z,47.70
2018-12-02T02:02:51.495Z,47.70
2018-12-02T02:05:22.947Z,48.30
2018-12-02T02:07:51.657Z,48.40
2018-12-02T02:10:24.617Z,48.50
2018-12-02T02:12:53.337Z,48.40
2018-12-02T02:15:22.039Z,48.50
2018-12-02T02:17:50.747Z,48.30
2018-12-02T02:20:20.430Z,48.20
2018-12-02T02:22:49.118Z,48.80
2018-12-02T02:25:18.697Z,48.80
2018-12-02T02:28:04.720Z,48.80
2018-12-02T02:30:33.434Z,48.80
2018-12-02T02:33:02.148Z,48.50
2018-12-02T02:35:30.807Z,48.60
2018-12-02T02:37:59.522Z,49.30
2018-12-02T02:40:29.821Z,48.80
2018-12-02T02:42:58.547Z,49.40
2018-12-02T02:45:27.315Z,48.90
2018-12-02T02:47:56.036Z,49.00
2018-12-02T02:50:25.755Z,49.60
2018-12-02T02:52:57.322Z,49.10
2018-12-02T02:55:26.179Z,49.10
2018-12-02T02:57:55.642Z,49.60
2018-12-02T03:00:25.410Z,49.10
2018-12-02T03:02:54.182Z,49.60
2018-12-02T03:05:22.914Z,49.60
2018-12-02T03:07:51.666Z,49.40
2018-12-02T03:10:21.184Z,49.40
2018-12-02T03:12:53.024Z,49.10
2018-12-02T03:15:22.332Z,49.10
2018-12-02T03:17:51.024Z,49.00
2018-12-02T03:20:21.461Z,48.90
2018-12-02T03:22:53.166Z,48.90
2018-12-02T03:25:23.302Z,49.10
2018-12-02T03:27:52.125Z,48.70
2018-12-02T03:30:22.560Z,48.90
2018-12-02T03:32:51.300Z,48.70
2018-12-02T03:35:24.711Z,48.60
2018-12-02T03:37:54.624Z,48.20
2018-12-02T03:40:26.179Z,48.70
2018-12-02T03:42:55.639Z,48.30
2018-12-02T03:45:27.449Z,48.40
2018-12-02T03:47:56.591Z,48.90
2018-12-02T03:50:26.279Z,49.10
2018-12-02T03:52:55.787Z,48.80
2018-12-02T03:55:24.949Z,48.70
2018-12-02T03:57:54.702Z,49.30
2018-12-02T04:00:25.553Z,49.40
2018-12-02T04:02:55.122Z,49.50
2018-12-02T04:05:25.007Z,49.00
2018-12-02T04:07:53.849Z,49.20
2018-12-02T04:10:22.568Z,49.20
2018-12-02T04:12:52.010Z,49.20
2018-12-02T04:15:23.512Z,49.20
2018-12-02T04:17:52.227Z,49.10
2018-12-02T04:20:21.289Z,49.70
2018-12-02T04:22:50.854Z,49.70
2018-12-02T04:25:21.690Z,49.20
2018-12-02T04:27:50.391Z,49.20
2018-12-02T04:30:19.766Z,49.80
2018-12-02T04:32:51.069Z,49.60
2018-12-02T04:35:25.565Z,49.50
2018-12-02T04:37:54.312Z,48.60
2018-12-02T04:40:22.979Z,49.20
2018-12-02T04:42:51.681Z,49.10
2018-12-02T04:45:20.596Z,48.90
2018-12-02T04:47:49.589Z,48.80
2018-12-02T04:50:19.358Z,48.30
2018-12-02T04:52:48.222Z,48.20
2018-12-02T04:55:16.918Z,48.30
2018-12-02T04:57:45.611Z,48.80
2018-12-02T05:00:15.883Z,48.30
2018-12-02T05:02:46.465Z,48.30
2018-12-02T05:05:17.222Z,48.80
2018-12-02T05:07:45.894Z,48.90
2018-12-02T05:10:15.568Z,48.40
2018-12-02T05:12:44.406Z,48.40
2018-12-02T05:15:14.917Z,49.00
2018-12-02T05:17:43.655Z,48.60
2018-12-02T05:20:15.019Z,49.60
2018-12-02T05:22:43.724Z,49.30
2018-12-02T05:25:17.500Z,48.90
2018-12-02T05:27:42.753Z,49.00
2018-12-02T05:30:15.443Z,49.50
2018-12-02T05:32:44.825Z,49.40
2018-12-02T05:35:14.276Z,49.70
2018-12-02T05:37:42.919Z,49.40
2018-12-02T05:40:13.416Z,49.40
2018-12-02T05:42:42.192Z,49.60
2018-12-02T05:45:11.865Z,50.10
2018-12-02T05:47:40.574Z,50.10
2018-12-02T05:50:14.420Z,49.70
2018-12-02T05:52:43.174Z,49.80
2018-12-02T05:55:13.102Z,49.80
2018-12-02T05:57:41.846Z,50.30
2018-12-02T06:00:13.673Z,50.40
2018-12-02T06:02:42.367Z,50.50
2018-12-02T06:05:11.752Z,50.50
2018-12-02T06:07:40.438Z,50.40
2018-12-02T06:10:15.999Z,49.40
2018-12-02T06:12:44.695Z,50.00
2018-12-02T06:15:16.009Z,49.70
2018-12-02T06:17:44.697Z,49.40
2018-12-02T06:20:21.304Z,49.30
2018-12-02T06:22:50.750Z,49.20
2018-12-02T06:25:19.443Z,49.20
2018-12-02T06:27:48.141Z,48.60
2018-12-02T06:30:25.263Z,48.60
2018-12-02T06:32:56.095Z,48.50
2018-12-02T06:35:24.822Z,49.00
2018-12-02T06:37:54.747Z,48.50
2018-12-02T06:40:25.124Z,49.00
2018-12-02T06:42:53.850Z,49.70
2018-12-02T06:45:22.674Z,49.70
2018-12-02T06:47:51.339Z,49.70
2018-12-02T06:50:21.102Z,49.60
2018-12-02T06:52:49.833Z,49.50
2018-12-02T06:55:25.427Z,49.70
2018-12-02T06:58:11.982Z,49.70
2018-12-02T07:00:56.810Z,49.80
2018-12-02T07:03:32.588Z,49.50
2018-12-02T07:06:01.382Z,50.10
2018-12-02T07:08:30.105Z,50.00
2018-12-02T07:10:58.837Z,49.50
2018-12-02T07:13:27.541Z,49.60
2018-12-02T07:15:56.230Z,49.70
2018-12-02T07:18:29.115Z,50.00
2018-12-02T07:21:00.771Z,50.50
2018-12-02T07:23:33.842Z,50.40
2018-12-02T07:26:04.606Z,49.60
2018-12-02T07:28:33.318Z,49.40
2018-12-02T07:31:02.038Z,50.00
2018-12-02T07:33:31.630Z,49.80
2018-12-02T07:36:30.715Z,49.90
2018-12-02T07:39:23.443Z,49.60
2018-12-02T07:41:52.162Z,49.10
2018-12-02T07:44:21.734Z,49.60
2018-12-02T07:46:50.522Z,48.80
2018-12-02T07:49:19.200Z,48.70
2018-12-02T07:51:47.906Z,49.30
2018-12-02T07:54:16.967Z,49.10
2018-12-02T07:56:45.698Z,48.50
2018-12-02T07:59:14.395Z,49.10
2018-12-02T08:01:43.718Z,49.10
2018-12-02T08:04:12.440Z,49.10
2018-12-02T08:06:41.157Z,49.10
2018-12-02T08:09:09.859Z,48.60
2018-12-02T08:11:38.610Z,49.10
2018-12-02T08:14:07.279Z,49.10
2018-12-02T08:16:36.033Z,48.60
2018-12-02T08:19:04.929Z,49.00
2018-12-02T08:21:33.691Z,48.70
2018-12-02T08:24:02.370Z,48.90
2018-12-02T08:26:32.055Z,48.80
2018-12-02T08:29:00.735Z,48.80
2018-12-02T08:31:29.425Z,49.00
2018-12-02T08:33:58.149Z,48.90
2018-12-02T08:36:26.890Z,48.90
2018-12-02T08:38:56.532Z,49.50
2018-12-02T08:41:26.476Z,49.10
2018-12-02T08:46:23.505Z,49.30
2018-12-02T08:48:53.247Z,49.80
2018-12-02T08:51:20.922Z,49.30
2018-12-02T08:53:49.646Z,49.20
2018-12-02T08:56:18.335Z,49.20
2018-12-02T08:58:47.037Z,49.20
2018-12-02T09:01:15.743Z,49.30
2018-12-02T09:03:44.467Z,49.80
2018-12-02T09:06:13.347Z,49.20
2018-12-02T09:08:41.998Z,49.70
2018-12-02T09:11:10.685Z,49.70
2018-12-02T09:13:39.361Z,49.10
2018-12-02T09:16:08.041Z,49.20
2018-12-02T09:18:36.804Z,49.80
2018-12-02T09:21:05.859Z,49.50
2018-12-02T09:23:34.541Z,50.10
2018-12-02T09:26:03.283Z,50.10
2018-12-02T09:28:32.018Z,50.10
2018-12-02T09:31:01.250Z,50.70
2018-12-02T09:33:29.975Z,49.80
2018-12-02T09:35:58.693Z,50.30
2018-12-02T09:38:27.404Z,50.20
2018-12-02T09:40:56.233Z,49.30
2018-12-02T09:43:24.967Z,49.10
2018-12-02T09:45:53.666Z,49.10
2018-12-02T09:48:22.335Z,49.00
2018-12-02T09:50:51.042Z,49.00
2018-12-02T09:53:19.841Z,49.60
2018-12-02T09:55:51.812Z,49.00
2018-12-02T09:58:27.833Z,49.00
2018-12-02T10:01:00.346Z,48.90
2018-12-02T10:03:29.088Z,49.50
2018-12-02T10:05:57.818Z,49.40
2018-12-02T10:08:26.565Z,48.90
2018-12-02T10:10:55.283Z,49.40
2018-12-02T10:13:24.376Z,49.40
2018-12-02T10:15:56.833Z,49.40
2018-12-02T10:18:26.370Z,49.00
2018-12-02T10:20:55.191Z,48.90
2018-12-02T10:23:23.891Z,48.90
2018-12-02T10:25:52.703Z,49.00
2018-12-02T10:28:21.411Z,49.00
2018-12-02T10:35:46.787Z,49.10
2018-12-02T10:38:15.558Z,49.10
2018-12-02T10:40:44.262Z,49.10
2018-12-02T10:43:12.956Z,49.10
2018-12-02T10:48:11.150Z,49.10
2018-12-02T10:53:12.552Z,49.20
2018-12-02T10:55:49.596Z,49.20
2018-12-02T10:58:23.515Z,49.10
2018-12-02T11:00:58.687Z,49.20
2018-12-02T11:03:27.408Z,50.00
2018-12-02T11:05:56.083Z,50.10
2018-12-02T11:08:27.037Z,50.10
2018-12-02T11:10:55.757Z,50.00
2018-12-02T11:13:24.443Z,50.00
2018-12-02T11:15:53.098Z,50.00
2018-12-02T11:18:21.844Z,49.90
2018-12-02T11:20:50.502Z,49.70
2018-12-02T11:23:19.279Z,49.80
2018-12-02T11:25:48.001Z,49.70
2018-12-02T11:28:16.807Z,49.30
2018-12-02T11:30:45.548Z,49.20
2018-12-02T11:33:14.315Z,49.80
2018-12-02T11:35:43.019Z,49.10
2018-12-02T11:38:11.906Z,49.10
2018-12-02T11:40:41.897Z,48.90
2018-12-02T11:43:10.811Z,48.60
2018-12-02T11:45:39.470Z,48.70
2018-12-02T11:48:09.115Z,50.50
2018-12-02T11:50:38.356Z,48.20
2018-12-02T11:53:07.544Z,48.00
2018-12-02T11:55:36.211Z,47.50
2018-12-02T11:58:05.054Z,48.00
2018-12-02T12:00:35.237Z,47.80
2018-12-02T12:03:04.241Z,47.90
2018-12-02T12:05:32.948Z,48.00
2018-12-02T12:08:01.779Z,48.60
2018-12-02T12:10:30.529Z,47.90
2018-12-02T12:13:00.378Z,47.60
2018-12-02T12:15:30.068Z,48.10
2018-12-02T12:17:59.510Z,47.00
2018-12-02T12:20:33.315Z,46.90
2018-12-02T12:23:02.088Z,47.40
2018-12-02T12:25:30.886Z,46.60
2018-12-02T12:27:59.905Z,46.60
2018-12-02T12:30:29.970Z,46.70
2018-12-02T12:32:58.713Z,46.70
2018-12-02T12:35:27.546Z,46.70
2018-12-02T12:37:56.291Z,47.20
2018-12-02T12:40:27.239Z,46.80
2018-12-02T12:43:07.414Z,46.90
2018-12-02T12:45:36.098Z,47.50
2018-12-02T12:48:04.863Z,46.90
2018-12-02T12:50:33.571Z,47.50
2018-12-02T12:53:02.268Z,47.50
2018-12-02T12:55:30.975Z,47.50
2018-12-02T12:57:59.663Z,47.60
2018-12-02T13:00:28.438Z,47.70
2018-12-02T13:02:57.154Z,47.70
2018-12-02T13:05:26.677Z,47.80
2018-12-02T13:07:55.881Z,47.40
2018-12-02T13:10:24.545Z,48.00
2018-12-02T13:12:53.275Z,47.60
2018-12-02T13:15:22.897Z,47.70
2018-12-02T13:18:01.262Z,48.30
2018-12-02T13:20:48.275Z,48.40
2018-12-02T13:23:16.997Z,48.00
2018-12-02T13:25:45.717Z,48.60
2018-12-02T13:28:14.398Z,48.20
2018-12-02T13:30:44.078Z,48.20
2018-12-02T13:33:12.836Z,48.30
2018-12-02T13:35:41.775Z,48.40
2018-12-02T13:38:10.459Z,48.90
2018-12-02T13:40:40.413Z,49.00
2018-12-02T13:43:11.083Z,48.90
2018-12-02T13:45:39.824Z,48.40
2018-12-02T13:48:08.558Z,48.50
2018-12-02T13:50:37.313Z,49.00
2018-12-02T13:53:07.040Z,48.50
2018-12-02T13:55:36.326Z,48.50
2018-12-02T13:58:05.366Z,48.40
2018-12-02T14:00:34.121Z,48.30
2018-12-02T14:03:04.115Z,48.20
2018-12-02T14:05:32.865Z,48.00
2018-12-02T14:08:01.607Z,48.00
2018-12-02T14:10:30.327Z,48.50
2018-12-02T14:13:02.433Z,48.50
2018-12-02T14:15:37.626Z,48.00
2018-12-02T14:18:45.330Z,48.30
2018-12-02T14:21:14.026Z,48.80
2018-12-02T14:23:43.734Z,49.20
2018-12-02T14:26:15.633Z,49.50
2018-12-02T14:28:51.427Z,49.40
2018-12-02T14:31:20.330Z,49.60
2018-12-02T14:33:49.075Z,50.30
2018-12-02T14:36:17.796Z,50.10
2018-12-02T14:38:46.675Z,49.20
2018-12-02T14:41:15.384Z,49.40
2018-12-02T14:43:44.043Z,50.00
2018-12-02T14:46:12.695Z,49.80
2018-12-02T14:51:10.633Z,49.90
2018-12-02T14:53:40.809Z,50.00
2018-12-02T14:56:10.594Z,49.90
2018-12-02T14:58:39.262Z,50.00
2018-12-02T15:01:07.911Z,50.40
2018-12-02T15:03:36.585Z,50.00
2018-12-02T15:06:05.776Z,50.00
2018-12-02T15:08:34.451Z,50.10
2018-12-02T15:11:03.135Z,50.10
2018-12-02T15:13:31.858Z,50.20
2018-12-02T15:16:00.706Z,50.30
2018-12-02T15:18:29.400Z,50.40
2018-12-02T15:20:58.432Z,50.50
2018-12-02T15:23:26.841Z,51.00
2018-12-02T15:25:55.619Z,50.50
2018-12-02T15:28:25.017Z,50.50
2018-12-02T15:30:53.926Z,50.60
2018-12-02T15:33:22.970Z,50.60
2018-12-02T15:35:51.636Z,51.10
2018-12-02T15:38:20.330Z,50.60
2018-12-02T15:40:49.174Z,51.20
2018-12-02T15:43:17.870Z,51.10
2018-12-02T15:45:46.530Z,50.70
2018-12-02T15:48:15.206Z,51.20
2018-12-02T15:50:43.921Z,51.10
2018-12-02T15:53:12.607Z,50.30
2018-12-02T15:55:41.311Z,48.30
2018-12-02T15:58:12.762Z,48.90
2018-12-02T16:00:44.041Z,49.00
2018-12-02T16:03:12.737Z,49.50
2018-12-02T16:05:41.455Z,48.90
2018-12-02T16:08:10.187Z,48.90
2018-12-02T16:10:38.895Z,48.90
2018-12-02T16:13:09.845Z,49.40
2018-12-02T16:15:38.558Z,51.10
2018-12-02T16:18:10.307Z,51.20
2018-12-02T16:20:47.485Z,51.50
2018-12-02T16:23:21.157Z,52.00
2018-12-02T16:25:50.038Z,52.00
2018-12-02T16:28:18.834Z,51.70
2018-12-02T16:30:48.613Z,52.20
2018-12-02T16:33:17.372Z,52.10
2018-12-02T16:35:46.086Z,52.00
2018-12-02T16:38:14.736Z,52.40
2018-12-02T16:40:43.448Z,51.60
2018-12-02T16:43:12.273Z,51.90
2018-12-02T16:45:41.168Z,52.00
2018-12-02T16:48:11.046Z,54.40
2018-12-02T16:50:44.236Z,56.00
2018-12-02T16:53:15.660Z,51.80
2018-12-02T16:55:53.708Z,52.30
2018-12-02T16:58:43.926Z,57.90
2018-12-02T17:01:17.110Z,57.60
2018-12-02T17:03:45.821Z,55.60
2018-12-02T17:06:14.562Z,53.80
2018-12-02T17:08:43.554Z,51.60
2018-12-02T17:11:13.193Z,52.10
2018-12-02T17:13:41.002Z,52.70
2018-12-02T17:16:09.690Z,52.90
2018-12-02T17:18:38.411Z,51.40
2018-12-02T17:21:07.436Z,51.30
2018-12-02T17:23:36.092Z,51.80
2018-12-02T17:26:04.888Z,51.10
2018-12-02T17:28:33.586Z,50.90
2018-12-02T17:31:05.950Z,51.40
2018-12-02T17:33:34.655Z,51.40
2018-12-02T17:36:03.399Z,51.30
2018-12-02T17:38:32.167Z,50.70
2018-12-02T17:41:00.924Z,50.70
2018-12-02T17:43:29.592Z,51.20
2018-12-02T17:45:58.420Z,51.10
2018-12-02T17:48:27.121Z,51.10
2018-12-02T17:50:55.827Z,50.90
2018-12-02T17:53:24.516Z,50.90
2018-12-02T17:55:53.329Z,50.30
2018-12-02T17:58:22.197Z,50.30
2018-12-02T18:00:50.921Z,50.20
2018-12-02T18:03:22.274Z,50.70
2018-12-02T18:05:51.018Z,50.70
2018-12-02T18:08:19.715Z,50.70
2018-12-02T18:13:16.884Z,50.00
2018-12-02T18:18:14.491Z,50.00
2018-12-02T18:20:43.142Z,49.90
2018-12-02T18:23:11.854Z,50.40
2018-12-02T18:25:40.522Z,50.40
2018-12-02T18:28:09.207Z,50.40
2018-12-02T18:30:37.912Z,50.30
2018-12-02T18:33:06.692Z,50.30
2018-12-02T18:35:43.845Z,49.80
2018-12-02T18:38:15.251Z,49.70
2018-12-02T18:40:48.269Z,49.70
2018-12-02T18:43:16.983Z,49.60
2018-12-02T18:45:47.966Z,49.60
2018-12-02T18:48:16.841Z,50.20
2018-12-02T18:50:45.530Z,49.60
2018-12-02T18:53:14.315Z,50.20
2018-12-02T18:55:43.397Z,49.50
2018-12-02T18:58:12.492Z,50.10
2018-12-02T19:00:46.574Z,50.00
2018-12-02T19:03:16.583Z,50.00
2018-12-02T19:05:45.578Z,49.30
2018-12-02T19:08:14.251Z,49.30
2018-12-02T19:10:43.724Z,49.20
2018-12-02T19:13:12.405Z,49.80
2018-12-02T19:15:41.125Z,49.40
2018-12-02T19:18:09.824Z,49.30
2018-12-02T19:20:38.587Z,50.00
2018-12-02T19:23:09.750Z,49.60
2018-12-02T19:25:38.538Z,50.10
2018-12-02T19:28:07.297Z,49.80
2018-12-02T19:30:35.998Z,49.50
2018-12-02T19:33:05.438Z,49.30
2018-12-02T19:35:35.408Z,48.40
2018-12-02T19:38:15.810Z,49.20
2018-12-02T19:40:44.483Z,49.40
2018-12-02T19:43:13.283Z,50.00
2018-12-02T19:45:41.961Z,49.30
2018-12-02T19:48:13.600Z,49.80
2018-12-02T19:50:42.415Z,49.60
2018-12-02T19:53:11.265Z,49.70
2018-12-02T19:55:39.990Z,50.30
2018-12-02T19:58:10.546Z,50.30
2018-12-02T20:00:41.469Z,50.30
2018-12-02T20:03:11.066Z,50.10
2018-12-02T20:05:40.138Z,49.20
2018-12-02T20:08:10.494Z,48.90
2018-12-02T20:10:40.153Z,49.40
2018-12-02T20:13:11.926Z,48.60
2018-12-02T20:15:45.887Z,48.60
2018-12-02T20:18:14.639Z,48.60
2018-12-02T20:20:48.281Z,48.60
2018-12-02T20:23:22.964Z,49.10
2018-12-02T20:25:52.986Z,48.50
2018-12-02T20:28:22.460Z,49.00
2018-12-02T20:30:51.136Z,49.00
2018-12-02T20:33:19.794Z,48.40
2018-12-02T20:35:48.490Z,48.90
2018-12-02T20:38:17.350Z,48.90
2018-12-02T20:40:46.023Z,48.60
2018-12-02T20:43:14.754Z,48.60
2018-12-02T20:45:43.438Z,49.10
2018-12-02T20:48:12.110Z,48.60
2018-12-02T20:50:40.751Z,48.60
2018-12-02T20:53:09.428Z,49.10
2018-12-02T20:55:38.186Z,48.40
2018-12-02T20:58:07.164Z,48.90
2018-12-02T21:00:36.334Z,48.30
2018-12-02T21:03:25.550Z,48.40
2018-12-02T21:05:57.377Z,48.90
2018-12-02T21:08:26.592Z,48.50
2018-12-02T21:10:55.659Z,49.00
2018-12-02T21:13:24.319Z,48.60
2018-12-02T21:15:53.028Z,49.20
2018-12-02T21:18:22.847Z,49.10
2018-12-02T21:20:51.650Z,49.20
2018-12-02T21:23:20.530Z,49.20
2018-12-02T21:25:50.639Z,48.60
2018-12-02T21:28:20.932Z,48.30
2018-12-02T21:30:49.701Z,48.50
2018-12-02T21:33:18.454Z,48.80
2018-12-02T21:35:47.357Z,48.80
2018-12-02T21:38:16.042Z,48.80
2018-12-02T21:40:44.703Z,48.80
2018-12-02T21:43:13.610Z,48.80
2018-12-02T21:48:12.530Z,48.80
2018-12-02T21:50:41.287Z,48.70
2018-12-02T21:53:10.153Z,48.50
2018-12-02T21:55:39.233Z,48.50
2018-12-02T21:58:13.401Z,48.50
2018-12-02T22:00:50.230Z,48.60
2018-12-02T22:03:18.927Z,49.10
2018-12-02T22:05:47.622Z,48.60
2018-12-02T22:08:16.326Z,49.20
2018-12-02T22:10:45.078Z,49.10
2018-12-02T22:13:13.736Z,49.20
2018-12-02T22:15:42.416Z,49.30
2018-12-02T22:18:11.113Z,48.60
2018-12-02T22:20:39.800Z,49.20
2018-12-02T22:23:08.679Z,48.50
2018-12-02T22:25:37.354Z,48.50
2018-12-02T22:28:08.178Z,48.40
2018-12-02T22:30:36.993Z,48.30
2018-12-02T22:33:06.557Z,48.10
2018-12-02T22:35:35.791Z,48.10
2018-12-02T22:38:04.601Z,48.00
2018-12-02T22:40:33.704Z,47.90
2018-12-02T22:43:02.371Z,47.90
2018-12-02T22:45:31.087Z,47.90
2018-12-02T22:47:59.816Z,48.00
2018-12-02T22:50:29.208Z,47.90
2018-12-02T23:00:37.265Z,48.00
2018-12-02T23:03:12.335Z,48.10
2018-12-02T23:05:52.434Z,48.20
2018-12-02T23:08:22.023Z,48.20
2018-12-02T23:10:50.918Z,48.30
2018-12-02T23:13:19.844Z,48.30
2018-12-02T23:15:48.604Z,48.40
2018-12-02T23:18:17.370Z,48.40
2018-12-02T23:20:46.130Z,48.40
2018-12-02T23:23:15.123Z,48.40
2018-12-02T23:25:44.151Z,48.40
2018-12-02T23:28:12.922Z,48.40
2018-12-02T23:30:41.711Z,48.40
2018-12-02T23:33:10.450Z,48.90
2018-12-02T23:35:39.186Z,48.90
2018-12-02T23:38:07.975Z,48.40
2018-12-02T23:40:36.690Z,48.50
2018-12-02T23:43:05.741Z,48.70
2018-12-02T23:45:34.830Z,49.10
2018-12-02T23:48:03.610Z,49.30
2018-12-02T23:50:32.358Z,49.40
2018-12-02T23:53:01.154Z,49.60
2018-12-02T23:55:29.964Z,50.10
2018-12-02T23:57:58.777Z,50.20
